FW2916 Weather Reports


Display with metric or nautical units.
time (UTC)temp
F
wind
direction
speed
MPH
gust
MPH
rain 1hr
in
rain 24hr
in
rain mn
in
humidity
%
barometer
mb
20240623114522 69 0 0.0 0.0 0.00 0.11 0.00 93 1014.0
20240623113022 69 0 0.0 0.0 0.00 0.11 0.00 92 1013.8
20240623111522 69 0 0.0 0.0 0.00 0.11 0.00 92 1013.7
20240623110024 70 0 0.0 0.0 0.00 0.11 0.00 92 1013.6
20240623104527 70 0 0.0 0.0 0.00 0.11 0.00 92 1013.5
20240623103026 70 0 0.0 0.0 0.00 0.11 0.00 92 1013.4
20240623101534 70 0 0.0 0.0 0.00 0.11 0.00 91 1013.3
20240623100022 70 0 0.0 0.0 0.00 0.11 0.00 91 1013.1
20240623094519 71 0 0.0 0.0 0.00 0.11 0.00 90 1013.1
20240623093021 71 0 0.0 0.0 0.00 0.11 0.00 89 1013.1
20240623091520 72 0 0.0 0.0 0.00 0.11 0.00 89 1012.9
20240623090026 73 0 0.0 0.0 0.00 0.11 0.00 88 1012.8
20240623084523 73 0 0.0 0.0 0.00 0.11 0.00 88 1012.8
20240623083025 74 0 0.0 1.0 0.00 0.11 0.00 88 1012.8
20240623081523 75 0 0.0 1.0 0.00 0.11 0.00 88 1012.8
20240623080023 76 0 0.0 2.0 0.00 0.11 0.00 87 1012.8
20240623074523 76 0 0.0 0.0 0.00 0.11 0.00 87 1012.5
20240623073022 77 0 0.0 1.0 0.00 0.11 0.00 86 1012.4
20240623071540 77 5 0.0 2.0 0.00 0.11 0.00 85 1012.3
20240623070024 78 229 0.0 3.0 0.00 0.11 0.00 85 1012.1
20240623064522 78 15 0.0 2.0 0.00 0.11 0.00 85 1012.1
20240623063025 79 347 0.0 3.0 0.00 0.11 0.00 85 1012.0
20240623061526 79 0 0.0 3.0 0.00 0.11 0.00 85 1011.9
20240623060025 80 328 0.0 7.0 0.00 0.11 0.00 86 1011.6
20240623054522 80 0 0.0 3.0 0.00 0.11 0.00 87 1011.6
20240623053022 80 0 0.0 1.0 0.00 0.11 0.00 86 1011.7
20240623051528 81 0 0.0 1.0 0.00 0.11 0.00 86 1011.4
20240623050022 81 0 0.0 1.0 0.00 0.11 0.00 85 1011.3
20240623044521 81 0 0.0 0.0 0.00 0.11 0.11 83 1011.1
20240623043023 82 0 0.0 2.0 0.00 0.11 0.11 82 1011.0
20240623041519 83 115 0.0 3.0 0.00 0.11 0.11 79 1010.9
20240623040029 83 252 1.0 4.0 0.00 0.11 0.11 79 1010.0
20240623034521 82 252 0.0 4.0 0.00 0.11 0.11 80 1009.7
20240623033029 82 207 1.0 4.0 0.00 0.11 0.11 81 1009.6
20240623031526 82 207 0.0 3.0 0.00 0.11 0.11 81 1009.4
20240623030024 82 190 1.0 3.0 0.00 0.11 0.11 82 1009.4
20240623024523 81 0 0.0 3.0 0.00 0.11 0.11 83 1009.1
20240623023020 81 0 0.0 4.0 0.00 0.11 0.11 85 1009.0
20240623021522 80 0 0.0 2.0 0.00 0.11 0.11 91 1008.8
20240623020025 80 0 0.0 0.0 0.00 0.11 0.11 92 1008.9
20240623014522 80 0 0.0 0.0 0.00 0.11 0.11 92 1008.7
20240623013022 80 0 0.0 0.0 0.00 0.11 0.11 91 1008.7
20240623011523 80 0 0.0 0.0 0.00 0.11 0.11 90 1008.8
20240623010023 81 0 0.0 1.0 0.11 0.11 0.11 89 1008.9
20240623004532 81 0 0.0 1.0 0.11 0.11 0.11 89 1008.9
20240623003024 82 0 0.0 1.0 0.11 0.11 0.11 85 1009.0
20240623001524 87 182 0.0 6.0 0.09 0.09 0.09 74 1009.3
20240623000023 91 160 2.0 9.0 0.00 0.00 0.00 64 1009.4
20240622234525 92 266 2.0 8.0 0.00 0.00 0.00 62 1008.9
20240622233023 92 242 2.0 10.0 0.00 0.00 0.00 62 1009.2
20240622231523 92 221 0.0 10.0 0.00 0.00 0.00 62 1009.2
20240622230027 92 200 2.0 9.0 0.00 0.00 0.00 61 1009.2
20240622224521 93 156 2.0 11.0 0.00 0.00 0.00 60 1009.3
20240622223026 94 215 3.0 11.0 0.00 0.00 0.00 59 1009.4
20240622221520 94 248 3.0 9.0 0.00 0.00 0.00 58 1009.7
20240622220023 94 195 2.0 8.0 0.00 0.00 0.00 58 1009.8
20240622214522 95 213 3.0 9.0 0.00 0.00 0.00 57 1009.8
20240622213024 95 214 2.0 9.0 0.00 0.00 0.00 59 1009.9
20240622211540 95 218 2.0 9.0 0.00 0.00 0.00 56 1010.1
20240622210231 96 198 2.0 8.0 0.00 0.00 0.00 57 1010.1
20240622204522 95 59 3.0 8.0 0.00 0.00 0.00 56 1010.3
20240622203022 94 188 4.0 12.0 0.00 0.00 0.00 58 1010.2
20240622201521 94 245 2.0 11.0 0.00 0.00 0.00 58 1010.4
20240622200021 95 217 3.0 9.0 0.00 0.00 0.00 58 1010.4
20240622194524 95 169 3.0 13.0 0.00 0.00 0.00 59 1010.6
20240622193026 94 159 4.0 11.0 0.00 0.00 0.00 57 1011.2
20240622191527 94 153 3.0 8.0 0.00 0.00 0.00 58 1011.3
20240622190043 93 155 4.0 12.0 0.00 0.00 0.00 60 1011.5
20240622184527 91 138 4.0 12.0 0.00 0.00 0.00 61 1011.6
20240622183026 93 236 5.0 13.0 0.00 0.00 0.00 59 1011.8
20240622181523 92 203 3.0 8.0 0.00 0.00 0.00 61 1012.0
20240622180029 91 195 2.0 13.0 0.00 0.00 0.00 63 1012.2
20240622174522 91 144 3.0 10.0 0.00 0.00 0.00 63 1012.4
20240622173022 91 170 4.0 10.0 0.00 0.00 0.00 63 1012.4
20240622171524 90 244 3.0 10.0 0.00 0.00 0.00 64 1012.4
20240622170023 90 200 3.0 12.0 0.00 0.00 0.00 64 1012.6
20240622164519 90 193 4.0 11.0 0.00 0.00 0.00 63 1012.7
20240622163029 89 186 3.0 8.0 0.00 0.00 0.00 65 1012.9
20240622161534 89 320 3.0 10.0 0.00 0.00 0.00 64 1013.1
20240622160029 88 239 4.0 10.0 0.00 0.00 0.00 66 1013.1
20240622154521 87 127 3.0 11.0 0.00 0.00 0.00 67 1013.3
20240622153022 86 212 2.0 11.0 0.00 0.00 0.00 69 1013.6
20240622151529 84 262 2.0 8.0 0.00 0.00 0.00 71 1013.8
20240622150027 83 0 1.0 6.0 0.00 0.00 0.00 71 1013.9
20240622144522 83 148 2.0 8.0 0.00 0.00 0.00 72 1014.0
20240622143023 81 186 1.0 8.0 0.00 0.00 0.00 73 1014.2
20240622141525 80 239 2.0 8.0 0.00 0.00 0.00 74 1014.1
20240622140035 80 223 1.0 7.0 0.00 0.00 0.00 74 1014.0
20240622134522 79 209 3.0 9.0 0.00 0.00 0.00 74 1014.1
20240622133021 79 282 1.0 7.0 0.00 0.00 0.00 74 1014.2
20240622131524 78 189 2.0 8.0 0.00 0.00 0.00 74 1014.4
20240622130026 77 235 0.0 9.0 0.00 0.00 0.00 76 1014.3
20240622124521 77 95 1.0 6.0 0.00 0.00 0.00 76 1014.5
20240622123023 76 141 1.0 8.0 0.00 0.00 0.00 75 1014.4
20240622121524 76 213 2.0 7.0 0.00 0.00 0.00 75 1014.6
20240622120034 76 230 0.0 3.0 0.00 0.00 0.00 76 1014.9